Latest Weather Observations for Jimna

IDQ60801

Issued at 5:02 pm EST Friday 19 December 2014 (issued every 30 minutes, with the page automatically refreshed every 10 minutes)

About weather observations | Map of weather stations | Latest weather observations for QLD | Other Formats
Station Details ID: 040651 Name: JIMNA FORESTRY Lat: -26.66 Lon: 152.46 Height: 523.0 m
Data from the previous 72 hours. | See also: Recent months at Jimna
Date/Time
EST
Temp
°C
App
Temp
°C
Dew
Point
Rel
Hum
%
Delta-T
°C
Wind Press
QNH
hPa
Press
MSL
hPa
Rain
since 9 am
mm
Dir
 
Spd
km/h
Gust
km/h
Spd
kts
Gust
kts
19/05:00pm 28.5 - 8.2 28 11.3 - - - - - - - 0.0
19/04:30pm 28.9 - 10.1 31 10.8 - - - - - - - 0.0
19/04:00pm 29.5 - 8.0 26 12.0 - - - - - - - 0.0
19/03:30pm 29.6 - 7.5 25 12.2 - - - - - - - 0.0
19/03:00pm 29.3 - 9.4 29 11.4 - - - - - - - 0.0
19/02:30pm 29.1 - 9.3 29 11.3 - - - - - - - 0.0
19/02:00pm 29.0 - 11.6 34 10.3 - - - - - - - 0.0
19/01:30pm 28.4 - 11.0 34 10.2 - - - - - - - 0.0
19/01:00pm 28.2 - 13.7 41 8.8 - - - - - - - 0.0
19/12:30pm 27.3 - 15.0 47 7.6 - - - - - - - 0.0
19/12:00pm 26.3 - 17.4 58 5.7 - - - - - - - 0.0
19/11:30am 25.7 - 17.9 62 5.0 - - - - - - - 0.0
19/11:00am 24.9 - 16.3 59 5.4 - - - - - - - 0.0
19/10:30am 24.0 - 16.5 63 4.7 - - - - - - - 0.0
19/10:00am 23.3 - 16.8 67 4.1 - - - - - - - 0.0
19/09:30am 22.1 - 18.1 78 2.5 - - - - - - - 0.0
19/09:00am 20.3 - 17.9 86 1.5 - - - - - - - 18.2
19/08:30am 19.1 - 17.1 88 1.2 - - - - - - - 18.2
19/08:00am 18.6 - 16.9 90 1.0 - - - - - - - 18.2
19/07:30am 17.6 - 16.1 91 0.9 - - - - - - - 18.2
19/07:00am 17.4 - 16.1 92 0.8 - - - - - - - 18.2
19/06:30am 17.1 - 15.8 92 0.8 - - - - - - - 18.2
19/06:00am 17.1 - 16.1 94 0.6 - - - - - - - 18.2
19/05:30am 17.0 - 15.7 92 0.8 - - - - - - - 18.0
19/05:00am 17.0 - 15.7 92 0.8 - - - - - - - 17.8
19/04:30am 17.0 - 15.7 92 0.8 - - - - - - - 17.4
19/04:00am 17.1 - 15.8 92 0.8 - - - - - - - 16.8
19/03:30am 17.1 - 15.8 92 0.8 - - - - - - - 16.2
19/03:00am 17.2 - 15.7 91 0.9 - - - - - - - 15.6
19/02:30am 17.6 - 16.1 91 0.9 - - - - - - - 13.6
19/02:00am 18.1 - 16.6 91 0.9 - - - - - - - 13.0
19/01:30am 18.6 - 17.3 92 0.8 - - - - - - - 12.6
19/01:00am 18.5 - 17.0 91 0.9 - - - - - - - 12.2
19/12:30am 18.5 - 17.0 91 0.9 - - - - - - - 11.6
19/12:00am 18.6 - 17.1 91 0.9 - - - - - - - 10.4
 
Date/Time
EST
Temp
°C
App
Temp
°C
Dew
Point
Rel
Hum
%
Delta-T
°C
Wind Press
QNH
hPa
Press
MSL
hPa
Rain
since 9 am
mm
Dir
 
Spd
km/h
Gust
km/h
Spd
kts
Gust
kts
18/11:30pm 18.9 - 17.0 89 1.2 - - - - - - - 8.8
18/11:00pm 19.4 - 17.7 90 1.1 - - - - - - - 6.8
18/10:30pm 19.7 - 18.2 91 0.9 - - - - - - - 4.6
18/10:00pm 19.8 - 18.1 90 1.1 - - - - - - - 3.4
18/09:30pm 20.1 - 18.0 88 1.3 - - - - - - - 1.4
18/09:00pm 20.2 - 18.1 88 1.3 - - - - - - - 1.4
18/08:30pm 20.3 - 18.2 88 1.3 - - - - - - - 1.4
18/08:00pm 20.2 - 18.3 89 1.2 - - - - - - - 1.4
18/07:30pm 20.3 - 18.2 88 1.3 - - - - - - - 1.4
18/07:00pm 20.7 - 18.5 87 1.4 - - - - - - - 1.4
18/06:30pm 21.3 - 18.5 84 1.8 - - - - - - - 1.0
18/06:00pm 23.9 - 16.9 65 4.4 - - - - - - - 0.2
18/05:30pm 27.7 - 20.0 63 5.1 - - - - - - - 0.2
18/05:00pm 28.3 - 19.2 57 6.0 - - - - - - - 0.2
18/04:30pm 29.3 - 17.2 48 7.8 - - - - - - - 0.2
18/04:00pm 29.4 - 15.9 44 8.5 - - - - - - - 0.2
18/03:30pm 30.0 - 17.1 46 8.3 - - - - - - - 0.2
18/03:00pm 30.4 - 18.2 48 8.0 - - - - - - - 0.2
18/02:30pm 31.0 - 17.3 43 8.9 - - - - - - - 0.2
18/02:00pm 31.5 - 17.8 44 9.0 - - - - - - - 0.2
18/01:30pm 31.5 - 18.8 46 8.4 - - - - - - - 0.2
18/01:00pm 30.8 - 18.5 47 8.1 - - - - - - - 0.2
18/12:30pm 30.7 - 18.8 49 7.9 - - - - - - - 0.2
18/12:00pm 29.9 - 18.3 49 7.6 - - - - - - - 0.2
18/11:30am 29.5 - 18.6 52 7.2 - - - - - - - 0.2
18/11:00am 28.9 - 18.1 52 7.0 - - - - - - - 0.2
18/10:30am 28.3 - 18.7 56 6.3 - - - - - - - 0.2
18/10:00am 26.9 - 17.7 57 5.9 - - - - - - - 0.2
18/09:30am 26.5 - 18.1 60 5.4 - - - - - - - 0.0
18/09:00am 24.9 - 17.6 64 4.7 - - - - - - - 17.8
18/08:30am 25.1 - 16.8 60 5.2 - - - - - - - 17.8
18/08:00am 24.7 - 16.4 60 5.2 - - - - - - - 17.8
18/07:30am 24.8 - 15.7 57 5.6 - - - - - - - 17.8
18/07:00am 24.0 - 16.5 63 4.7 - - - - - - - 17.8
18/06:30am 20.1 - 18.4 90 1.1 - - - - - - - 17.8
18/06:00am 17.4 - 16.6 95 0.5 - - - - - - - 17.8
18/05:30am 16.7 - 15.4 92 0.8 - - - - - - - 17.8
18/05:00am 16.7 - 15.1 90 1.0 - - - - - - - 17.8
18/04:30am 16.9 - 15.4 91 0.9 - - - - - - - 17.8
18/04:00am 17.1 - 15.6 91 0.9 - - - - - - - 17.8
18/03:30am 17.4 - 15.9 91 0.9 - - - - - - - 17.8
18/03:00am 17.5 - 16.0 91 0.9 - - - - - - - 17.8
18/02:30am 18.3 - 15.9 86 1.5 - - - - - - - 17.8
18/02:00am 17.8 - 15.8 88 1.2 - - - - - - - 17.8
18/01:30am 18.2 - 16.5 90 1.0 - - - - - - - 17.8
18/01:00am 18.5 - 17.0 91 0.9 - - - - - - - 17.8
18/12:30am 18.5 - 16.8 90 1.0 - - - - - - - 17.8
18/12:00am 18.7 - 17.0 90 1.1 - - - - - - - 17.8
 
Date/Time
EST
Temp
°C
App
Temp
°C
Dew
Point
Rel
Hum
%
Delta-T
°C
Wind Press
QNH
hPa
Press
MSL
hPa
Rain
since 9 am
mm
Dir
 
Spd
km/h
Gust
km/h
Spd
kts
Gust
kts
17/11:30pm 19.4 - 16.6 84 1.7 - - - - - - - 17.6
17/11:00pm 21.2 - 15.7 71 3.4 - - - - - - - 14.4
17/10:30pm 19.3 - 16.0 81 2.0 - - - - - - - 14.2
17/10:00pm 19.0 - 16.0 83 1.8 - - - - - - - 14.2
17/09:30pm 18.9 - 16.1 84 1.7 - - - - - - - 14.2
17/09:00pm 19.2 - 16.2 83 1.8 - - - - - - - 14.2
17/08:30pm 19.2 - 16.6 85 1.6 - - - - - - - 14.2
17/08:00pm 19.0 - 16.8 87 1.4 - - - - - - - 14.2
17/07:30pm 19.1 - 17.4 90 1.1 - - - - - - - 14.2
17/07:00pm 19.2 - 17.7 91 0.9 - - - - - - - 14.2
17/06:30pm 19.2 - 17.7 91 0.9 - - - - - - - 14.2
17/06:00pm 19.0 - 17.3 90 1.1 - - - - - - - 14.2
17/05:30pm 20.7 - 13.4 63 4.3 - - - - - - - 4.0
17/05:27pm 23.0 - 12.6 52 6.1 - - - - - - - 1.2
17/05:00pm 28.0 - 12.8 39 9.1 - - - - - - - 0.0
17/04:30pm 29.9 - 11.4 32 10.9 - - - - - - - 0.0
17/04:00pm 29.7 - 13.5 37 9.9 - - - - - - - 0.0
17/03:30pm 32.3 - 13.0 31 11.8 - - - - - - - 0.0
17/03:00pm 32.1 - 13.3 31 11.5 - - - - - - - 0.0
17/02:30pm 33.1 - 12.7 29 12.5 - - - - - - - 0.0
17/02:00pm 34.1 - 11.3 25 13.7 - - - - - - - 0.0
17/01:30pm 33.9 - 13.9 30 12.5 - - - - - - - 0.0
17/01:00pm 33.8 - 14.8 32 12.0 - - - - - - - 0.0
17/12:30pm 33.6 - 13.6 29 12.4 - - - - - - - 0.0
17/12:00pm 33.5 - 15.5 34 11.5 - - - - - - - 0.0
17/11:30am 32.7 - 13.8 31 11.7 - - - - - - - 0.0
17/11:00am 32.1 - 12.8 30 11.8 - - - - - - - 0.0
17/10:30am 31.5 - 14.6 36 10.5 - - - - - - - 0.0
17/10:00am 31.6 - 16.3 39 9.8 - - - - - - - 0.0
17/09:30am 30.4 - 15.3 40 9.5 - - - - - - - 0.0
17/09:00am 29.8 - 14.7 39 9.4 - - - - - - - 0.0
17/08:30am 28.8 - 14.2 40 9.0 - - - - - - - 0.0
17/08:00am 27.7 - 15.7 48 7.5 - - - - - - - 0.0
17/07:30am 25.7 - 17.6 61 5.2 - - - - - - - 0.0
17/07:00am 23.9 - 16.7 64 4.5 - - - - - - - 0.0
17/06:30am 21.1 - 17.1 78 2.5 - - - - - - - 0.0
17/06:00am 20.0 - 16.6 81 2.1 - - - - - - - 0.0
17/05:30am 19.5 - 16.0 80 2.1 - - - - - - - 0.0
17/05:00am 19.2 - 15.5 79 2.2 - - - - - - - 0.0
17/04:30am 19.3 - 15.6 79 2.2 - - - - - - - 0.0
17/04:00am 20.3 - 15.5 74 2.9 - - - - - - - 0.0
17/03:30am 19.8 - 15.9 78 2.4 - - - - - - - 0.0
17/03:00am 19.8 - 15.7 77 2.5 - - - - - - - 0.0
17/02:30am 19.8 - 15.9 78 2.4 - - - - - - - 0.0
17/02:00am 20.0 - 15.6 76 2.7 - - - - - - - 0.0
17/01:30am 20.2 - 15.4 74 2.9 - - - - - - - 0.0
17/01:00am 20.5 - 15.9 75 2.8 - - - - - - - 0.0
17/12:30am 20.5 - 16.1 76 2.7 - - - - - - - 0.0
17/12:00am 20.7 - 17.1 80 2.2 - - - - - - - 0.0
 
Date/Time
EST
Temp
°C
App
Temp
°C
Dew
Point
Rel
Hum
%
Delta-T
°C
Wind Press
QNH
hPa
Press
MSL
hPa
Rain
since 9 am
mm
Dir
 
Spd
km/h
Gust
km/h
Spd
kts
Gust
kts
16/11:30pm 21.0 - 17.8 82 2.0 - - - - - - - 0.0
16/11:00pm 21.4 - 18.4 83 1.9 - - - - - - - 0.0
16/10:30pm 22.5 - 19.3 82 2.1 - - - - - - - 0.0
16/10:00pm 21.6 - 18.8 84 1.8 - - - - - - - 0.0
16/09:30pm 22.1 - 18.9 82 2.1 - - - - - - - 0.0
16/09:00pm 22.7 - 19.1 80 2.3 - - - - - - - 0.0
16/08:30pm 23.1 - 19.1 78 2.6 - - - - - - - 0.0
16/08:00pm 23.6 - 18.9 75 3.0 - - - - - - - 0.0
16/07:30pm 24.2 - 18.6 71 3.6 - - - - - - - 0.0
16/07:00pm 25.2 - 17.7 63 4.8 - - - - - - - 0.0
16/06:30pm 25.7 - 13.9 48 7.1 - - - - - - - 0.0
16/06:00pm 27.0 - 14.1 45 7.9 - - - - - - - 0.0
16/05:30pm 27.9 - 13.1 40 8.9 - - - - - - - 0.0

Other Formats:

Comma delimited format used in spreadsheet applications
http://www.bom.gov.au/fwo/IDQ60801/IDQ60801.94557.axf

JavaScript Object Notation format (JSON) in row-major order
http://www.bom.gov.au/fwo/IDQ60801/IDQ60801.94557.json